Time;durP1;ratioP1;P1;durP2;ratioP2;P2;SDS_P1;SDS_P2;PMS_P1;PMS_P2;Temp;Humidity;BMP_temperature;BMP_pressure;BME280_temperature;BME280_humidity;BME280_pressure;Samples;Min_cycle;Max_cycle;Signal;HPM_P1;HPM_P2
2022/08/30 00:03:35;;;;;;;16.60;6.80;;;;;;;9.74;100.00;97120.38;10453243;28;20212;-76
2022/08/30 00:08:36;;;;;;;11.37;6.27;;;;;;;9.70;100.00;97118.19;10451539;28;20322;-76
2022/08/30 00:13:37;;;;;;;12.40;6.43;;;;;;;9.65;100.00;97110.78;10451717;28;20648;-76
2022/08/30 00:18:38;;;;;;;10.73;5.93;;;;;;;9.60;100.00;97113.81;10434146;28;20565;-75
2022/08/30 00:23:39;;;;;;;10.70;7.20;;;;;;;9.57;100.00;97111.47;10451938;28;20184;-76
2022/08/30 00:28:39;;;;;;;8.80;6.23;;;;;;;9.44;100.00;97103.91;10452014;28;20231;-76
2022/08/30 00:33:40;;;;;;;11.33;6.67;;;;;;;9.42;100.00;97118.09;10451585;28;20208;-76
2022/08/30 00:38:40;;;;;;;8.97;6.77;;;;;;;9.53;100.00;97123.16;10451608;28;20219;-76
2022/08/30 00:43:41;;;;;;;14.97;6.23;;;;;;;9.40;100.00;97130.47;10450701;28;20550;-76
2022/08/30 00:48:44;;;;;;;10.80;7.03;;;;;;;9.41;100.00;97119.06;10451503;28;20604;-76
2022/08/30 00:53:55;;;;;;;12.00;6.53;;;;;;;9.41;100.00;97125.09;10434947;28;20192;-75
2022/08/30 00:58:57;;;;;;;9.33;5.97;;;;;;;9.45;100.00;97123.06;10452317;28;20250;-76
2022/08/30 01:03:58;;;;;;;7.93;6.87;;;;;;;9.46;100.00;97122.06;10417653;28;20196;-76
2022/08/30 01:09:00;;;;;;;11.77;6.53;;;;;;;9.39;100.00;97137.50;10452335;28;20243;-76
2022/08/30 01:14:01;;;;;;;10.47;7.37;;;;;;;9.27;100.00;97128.16;10434163;28;20203;-76
2022/08/30 01:19:02;;;;;;;10.40;6.50;;;;;;;9.31;100.00;97123.47;10434603;28;20280;-75
2022/08/30 01:24:04;;;;;;;9.77;6.37;;;;;;;9.29;100.00;97118.38;10432880;28;20659;-76
2022/08/30 01:29:07;;;;;;;10.33;6.17;;;;;;;9.27;100.00;97118.50;10434375;28;20225;-76
2022/08/30 01:34:08;;;;;;;8.73;6.53;;;;;;;9.20;100.00;97114.78;10433432;28;20208;-76
2022/08/30 01:39:10;;;;;;;13.67;7.23;;;;;;;9.23;100.00;97106.69;10451467;28;20216;-76
2022/08/30 01:44:12;;;;;;;11.10;6.87;;;;;;;9.24;100.00;97110.13;10433549;28;20195;-76
2022/08/30 01:49:16;;;;;;;15.30;7.10;;;;;;;9.18;100.00;97119.34;10451498;28;20215;-76
2022/08/30 01:54:16;;;;;;;10.57;7.10;;;;;;;9.18;100.00;97114.09;10433104;28;20310;-76
2022/08/30 01:59:17;;;;;;;10.40;7.10;;;;;;;9.20;100.00;97111.34;10450963;28;20238;-76
2022/08/30 02:04:17;;;;;;;11.57;8.00;;;;;;;9.14;100.00;97112.72;10450790;28;20679;-76
2022/08/30 02:09:18;;;;;;;11.20;7.93;;;;;;;9.15;100.00;97124.84;10394285;28;20325;-76
2022/08/30 02:14:18;;;;;;;13.73;7.63;;;;;;;9.17;100.00;97128.13;10409574;28;20184;-76
2022/08/30 02:19:19;;;;;;;13.17;7.07;;;;;;;9.25;100.00;97124.84;10409319;28;20227;-76
2022/08/30 02:24:19;;;;;;;9.00;6.70;;;;;;;9.19;100.00;97125.38;10409462;28;20268;-76
2022/08/30 02:29:20;;;;;;;10.07;6.70;;;;;;;9.21;100.00;97119.06;10409304;28;20196;-76
2022/08/30 02:34:21;;;;;;;11.63;6.30;;;;;;;9.19;100.00;97120.16;10409036;28;20242;-76
2022/08/30 02:39:21;;;;;;;8.40;6.70;;;;;;;9.18;100.00;97113.28;10415826;28;20213;-76
2022/08/30 02:44:22;;;;;;;9.80;6.13;;;;;;;9.12;100.00;97113.84;10399816;28;20212;-76
2022/08/30 02:49:22;;;;;;;10.77;6.13;;;;;;;9.09;100.00;97114.94;10421795;28;20196;-75
2022/08/30 02:54:23;;;;;;;9.50;6.47;;;;;;;9.11;100.00;97120.84;10399339;28;20197;-76
2022/08/30 02:59:25;;;;;;;11.97;7.67;;;;;;;9.13;100.00;97116.31;10416268;28;20223;-76
2022/08/30 03:04:26;;;;;;;16.87;7.03;;;;;;;9.10;100.00;97116.59;10413115;28;20288;-76
2022/08/30 03:09:26;;;;;;;9.93;6.80;;;;;;;9.12;100.00;97119.88;10452158;28;20231;-76
2022/08/30 03:14:27;;;;;;;14.03;7.00;;;;;;;9.16;100.00;97117.81;10452939;28;20203;-76
2022/08/30 03:19:27;;;;;;;9.53;6.27;;;;;;;9.09;100.00;97120.16;10452969;28;20912;-76
2022/08/30 03:24:28;;;;;;;12.97;6.37;;;;;;;9.12;100.00;97119.06;10452262;28;20618;-76
2022/08/30 03:29:28;;;;;;;10.37;7.40;;;;;;;9.14;100.00;97117.94;10452946;28;20548;-76
2022/08/30 03:34:28;;;;;;;16.07;7.00;;;;;;;9.16;100.00;97126.50;10452129;28;20301;-76
2022/08/30 03:39:29;;;;;;;8.87;6.50;;;;;;;9.12;100.00;97122.50;10451759;28;20237;-76
2022/08/30 03:44:29;;;;;;;9.20;7.17;;;;;;;9.13;100.00;97116.31;10452271;28;20648;-76
2022/08/30 03:49:30;;;;;;;11.87;7.67;;;;;;;9.21;100.00;97110.41;10451190;28;20188;-76
2022/08/30 03:54:31;;;;;;;9.50;6.90;;;;;;;9.19;100.00;97105.31;10451461;28;20243;-76
2022/08/30 03:59:31;;;;;;;11.20;7.67;;;;;;;9.20;100.00;97104.31;10450842;28;20223;-75
2022/08/30 04:04:32;;;;;;;9.87;6.60;;;;;;;9.24;100.00;97110.13;10453538;28;20215;-76
2022/08/30 04:09:32;;;;;;;7.87;6.50;;;;;;;9.20;100.00;97108.75;10454965;28;20236;-76
2022/08/30 04:14:32;;;;;;;9.90;6.30;;;;;;;9.15;100.00;97109.16;10453854;28;20956;-76
2022/08/30 04:19:33;;;;;;;11.10;7.33;;;;;;;9.20;100.00;97109.56;10454348;28;20713;-76
2022/08/30 04:24:33;;;;;;;11.17;7.43;;;;;;;9.18;100.00;97116.72;10453428;28;20555;-76
2022/08/30 04:29:34;;;;;;;10.43;7.10;;;;;;;9.18;100.00;97124.56;10453759;28;20192;-76
2022/08/30 04:34:34;;;;;;;9.90;7.07;;;;;;;9.20;100.00;97133.09;10446486;28;20219;-76
2022/08/30 04:39:34;;;;;;;6.00;5.03;;;;;;;9.22;100.00;97125.94;10411440;28;20723;-77
2022/08/30 04:44:35;;;;;;;10.57;6.87;;;;;;;9.32;100.00;97138.19;10431758;28;20731;-76
2022/08/30 04:49:35;;;;;;;11.30;6.53;;;;;;;9.35;100.00;97136.13;10412908;28;20199;-76
2022/08/30 04:54:35;;;;;;;7.90;5.30;;;;;;;9.28;100.00;97135.84;10453007;28;20192;-76
2022/08/30 04:59:37;;;;;;;10.40;6.97;;;;;;;9.33;100.00;97137.25;10451783;28;20619;-76
2022/08/30 05:05:38;;;;;;;8.33;5.10;;;;;;;9.40;100.00;97136.53;10433896;28;20271;-76
2022/08/30 05:09:58;;;;;;;9.63;5.73;;;;;;;9.52;100.00;97137.19;10452260;28;20195;-76
2022/08/30 05:14:59;;;;;;;8.10;5.87;;;;;;;9.72;100.00;97138.00;10451614;28;20192;-76
2022/08/30 05:20:00;;;;;;;7.53;6.77;;;;;;;9.89;100.00;97138.25;10451899;28;20306;-75
2022/08/30 05:25:01;;;;;;;8.53;6.37;;;;;;;10.11;100.00;97148.38;10451602;28;20224;-76
2022/08/30 05:30:02;;;;;;;7.87;6.40;;;;;;;10.43;100.00;97141.13;10451362;28;20218;-78
2022/08/30 05:35:05;;;;;;;8.73;6.63;;;;;;;10.70;100.00;97141.13;10451639;28;20212;-78
2022/08/30 05:40:07;;;;;;;10.43;5.77;;;;;;;11.17;100.00;97128.81;10449994;28;20299;-77
2022/08/30 05:45:08;;;;;;;8.10;5.50;;;;;;;11.62;100.00;97119.19;10423551;28;20212;-73
2022/08/30 05:50:08;;;;;;;7.53;5.28;;;;;;;11.82;100.00;97114.56;10450374;28;20223;-73
2022/08/30 05:55:10;;;;;;;7.10;5.13;;;;;;;11.98;100.00;97100.75;10450650;28;20703;-73
2022/08/30 06:00:16;;;;;;;8.10;6.03;;;;;;;11.88;100.00;97124.44;10442982;28;20226;-73
2022/08/30 06:05:16;;;;;;;9.52;5.57;;;;;;;12.59;100.00;97117.28;10450069;28;20228;-72
2022/08/30 06:10:17;;;;;;;6.63;5.07;;;;;;;13.49;100.00;97106.94;10452676;28;20180;-73
2022/08/30 06:15:17;;;;;;;8.60;5.13;;;;;;;13.38;100.00;97102.81;10448457;28;20253;-73
2022/08/30 06:20:19;;;;;;;5.60;4.55;;;;;;;14.02;100.00;97096.00;10448636;28;20247;-73
2022/08/30 06:25:19;;;;;;;9.85;4.85;;;;;;;14.48;100.00;97088.25;10435125;28;20275;-73
2022/08/30 06:30:19;;;;;;;8.13;4.80;;;;;;;14.94;100.00;97084.91;10418476;28;20176;-73
2022/08/30 06:35:20;;;;;;;5.45;4.18;;;;;;;16.91;100.00;97072.34;10422516;28;20266;-73
2022/08/30 06:40:21;;;;;;;6.00;4.63;;;;;;;17.38;100.00;97061.38;10416768;28;20221;-72
2022/08/30 06:45:21;;;;;;;6.88;4.00;;;;;;;17.94;100.00;97044.69;10420603;28;20578;-72
2022/08/30 06:50:21;;;;;;;6.45;3.95;;;;;;;18.65;100.00;97036.44;10456335;28;20640;-73
2022/08/30 06:55:22;;;;;;;6.60;4.00;;;;;;;19.01;92.74;97022.03;10450854;28;20805;-72
2022/08/30 07:00:22;;;;;;;4.45;3.45;;;;;;;19.86;89.26;97026.75;10455867;28;20239;-72
2022/08/30 07:05:22;;;;;;;4.65;3.58;;;;;;;19.89;86.64;97021.00;10455186;28;20238;-72
2022/08/30 07:10:23;;;;;;;5.20;3.70;;;;;;;20.37;84.07;97005.69;10446462;28;20311;-73
2022/08/30 07:15:23;;;;;;;5.72;3.78;;;;;;;20.89;83.60;97025.13;10446294;28;20188;-73
2022/08/30 07:20:23;;;;;;;4.43;3.33;;;;;;;22.31;79.25;97001.50;10445359;28;20216;-73
2022/08/30 07:25:24;;;;;;;5.90;3.10;;;;;;;23.06;77.50;97010.97;10434403;28;20242;-73
2022/08/30 07:30:24;;;;;;;3.80;3.17;;;;;;;23.81;71.90;96975.59;10431726;28;20298;-73
2022/08/30 07:35:25;;;;;;;6.97;3.05;;;;;;;23.17;71.81;96980.81;10433753;28;20215;-73
2022/08/30 07:40:26;;;;;;;3.33;2.97;;;;;;;22.42;72.93;97011.44;10433122;28;20553;-73
2022/08/30 07:45:26;;;;;;;5.15;3.65;;;;;;;22.02;76.29;97055.38;10433556;28;20199;-73
2022/08/30 07:50:27;;;;;;;6.03;3.50;;;;;;;23.36;70.80;96994.88;10442437;28;20190;-73
2022/08/30 07:55:27;;;;;;;7.97;3.58;;;;;;;23.04;72.00;97016.53;10437934;28;20293;-72
2022/08/30 08:00:27;;;;;;;5.65;3.60;;;;;;;24.68;65.72;96965.00;10442713;28;20713;-73
2022/08/30 08:05:28;;;;;;;7.35;3.33;;;;;;;24.55;66.75;96991.00;10423019;28;20606;-72
2022/08/30 08:10:28;;;;;;;5.13;3.47;;;;;;;23.79;67.06;96975.00;10442759;28;20247;-72
2022/08/30 08:15:29;;;;;;;3.73;3.00;;;;;;;24.02;66.85;96986.75;10438986;28;20537;-71
2022/08/30 08:20:32;;;;;;;8.43;2.90;;;;;;;25.30;61.41;96936.56;10437071;28;20479;-72
2022/08/30 08:25:37;;;;;;;6.22;2.90;;;;;;;26.41;58.31;96922.13;10422168;28;21088;-72
2022/08/30 08:30:37;;;;;;;3.67;3.00;;;;;;;25.67;57.67;96907.31;10426883;28;20215;-72
2022/08/30 08:35:38;;;;;;;5.72;2.40;;;;;;;24.36;58.88;96917.25;10420634;28;20307;-73
2022/08/30 08:41:06;;;;;;;3.50;2.20;;;;;;;24.70;59.45;96942.28;10433962;28;20225;-72
2022/08/30 08:46:31;;;;;;;2.95;2.13;;;;;;;24.83;59.74;96954.56;10429846;28;20455;-73
2022/08/30 08:57:01;;;;;;;2.75;2.30;;;;;;;26.40;54.92;96903.59;10463098;28;20578;-65
2022/08/30 09:02:31;;;;;;;7.13;2.70;;;;;;;25.43;56.92;96933.53;10436260;28;20714;-64
2022/08/30 09:07:53;;;;;;;3.92;2.15;;;;;;;24.20;55.27;96868.00;10438504;28;20293;-63
2022/08/30 09:12:56;;;;;;;6.45;2.15;;;;;;;25.81;55.23;96915.81;10444401;28;20212;-63
2022/08/30 09:18:01;;;;;;;5.28;1.90;;;;;;;27.30;50.91;96866.16;10434435;28;20647;-64
2022/08/30 09:23:32;;;;;;;2.38;1.75;;;;;;;26.58;51.11;96852.16;10443010;28;20236;-62
2022/08/30 09:29:01;;;;;;;2.30;2.03;;;;;;;25.80;53.83;96887.34;10422122;28;20232;-64
2022/08/30 09:34:04;;;;;;;2.33;1.77;;;;;;;25.46;50.14;96802.41;10422848;28;20251;-61
2022/08/30 09:39:14;;;;;;;3.45;2.03;;;;;;;24.83;51.35;96815.22;10420910;28;20220;-62
2022/08/30 09:44:18;;;;;;;2.20;1.70;;;;;;;24.18;52.89;96825.41;10424310;28;20242;-62
2022/08/30 09:49:40;;;;;;;4.30;1.60;;;;;;;24.02;52.51;96820.81;10425925;28;20224;-62
2022/08/30 09:54:56;;;;;;;3.17;2.00;;;;;;;24.18;53.83;96862.88;10453851;28;20232;-61
2022/08/30 10:00:14;;;;;;;2.67;1.70;;;;;;;25.45;45.52;96704.25;10427402;28;20571;-62
2022/08/30 10:05:44;;;;;;;1.75;1.60;;;;;;;26.32;51.35;96867.25;10421621;28;20624;-61
2022/08/30 10:10:47;;;;;;;2.30;1.75;;;;;;;27.21;47.54;96816.59;10384633;28;20296;-63
2022/08/30 10:15:50;;;;;;;3.17;1.80;;;;;;;27.16;46.74;96803.94;10398161;28;20232;-63
2022/08/30 10:20:58;;;;;;;5.50;1.63;;;;;;;27.48;46.21;96805.75;10413552;28;20185;-64
2022/08/30 10:26:10;;;;;;;3.55;1.48;;;;;;;28.18;43.63;96767.72;10413390;28;20216;-63
2022/08/30 10:31:29;;;;;;;2.70;1.20;;;;;;;28.65;44.14;96792.78;10412827;28;20227;-63
2022/08/30 10:36:36;;;;;;;4.05;1.70;;;;;;;26.09;46.06;96734.13;10413973;28;20232;-62
2022/08/30 10:41:39;;;;;;;3.05;1.50;;;;;;;25.96;48.30;96797.06;10412443;28;20604;-60
2022/08/30 10:47:04;;;;;;;2.35;1.45;;;;;;;25.16;48.59;96770.66;10396513;28;20198;-62
2022/08/30 10:52:33;;;;;;;1.95;1.50;;;;;;;24.91;47.90;96747.78;10412944;28;20686;-61
2022/08/30 10:58:31;;;;;;;2.70;1.45;;;;;;;26.53;47.42;96801.88;10410580;28;20220;-62
2022/08/30 11:04:09;;;;;;;4.68;1.70;;;;;;;27.02;46.29;96786.66;10390762;28;20189;-60
2022/08/30 11:09:40;;;;;;;2.50;1.55;;;;;;;27.96;43.20;96738.31;10412129;28;20205;-62
2022/08/30 11:14:42;;;;;;;3.00;1.60;;;;;;;29.05;42.29;96737.16;10399982;28;20217;-62
2022/08/30 11:20:21;;;;;;;2.05;1.50;;;;;;;29.20;40.65;96713.91;10400810;28;20636;-62
2022/08/30 11:25:52;;;;;;;1.90;1.70;;;;;;;27.24;45.54;96764.97;10388990;28;20246;-59
2022/08/30 11:31:08;;;;;;;3.25;1.77;;;;;;;29.02;38.42;96651.41;10386929;28;20304;-61
2022/08/30 11:36:10;;;;;;;6.50;1.40;;;;;;;29.73;40.95;96753.88;10384243;28;21019;-59
2022/08/30 11:41:13;;;;;;;2.05;1.50;;;;;;;30.39;39.37;96731.81;10396902;28;20315;-61
2022/08/30 11:46:17;;;;;;;2.95;1.50;;;;;;;29.47;39.30;96684.63;10386297;28;20224;-62
2022/08/30 11:51:21;;;;;;;3.50;1.80;;;;;;;27.79;40.50;96652.38;10389743;28;20642;-60
2022/08/30 11:56:27;;;;;;;4.18;1.80;;;;;;;28.58;41.54;96722.94;10382919;28;20315;-62
2022/08/30 12:01:28;;;;;;;3.35;2.30;;;;;;;27.42;46.74;96796.03;10373000;28;20209;-60
2022/08/30 12:06:40;;;;;;;4.57;2.63;;;;;;;26.41;50.40;96854.19;10381305;28;20228;-60
2022/08/30 12:12:04;;;;;;;5.82;2.25;;;;;;;26.23;49.49;96813.19;10371207;28;20236;-58
2022/08/30 12:22:54;;;;;;;4.05;2.33;;;;;;;26.07;50.47;96822.97;10363805;28;20679;-60
2022/08/30 12:28:13;;;;;;;4.18;2.22;;;;;;;26.37;50.09;96816.28;10365748;28;20296;-60
2022/08/30 12:33:24;;;;;;;2.67;2.38;;;;;;;25.21;50.41;96783.31;10396856;28;20938;-62
2022/08/30 12:38:29;;;;;;;4.65;2.40;;;;;;;25.94;52.94;96860.91;10376634;28;20583;-62
2022/08/30 12:43:38;;;;;;;6.82;2.60;;;;;;;26.51;48.99;96789.78;10366520;28;20686;-62
2022/08/30 12:48:39;;;;;;;4.07;2.20;;;;;;;27.53;46.31;96765.38;10365865;28;20239;-61
2022/08/30 12:53:41;;;;;;;2.97;2.05;;;;;;;26.82;46.53;96736.28;10365473;28;20237;-60
2022/08/30 12:58:48;;;;;;;4.13;2.08;;;;;;;28.28;44.08;96735.38;10342806;23;20256;-73
2022/08/30 13:04:02;;;;;;;2.08;1.70;;;;;;;30.27;40.26;96707.03;10341553;28;20194;-73
2022/08/30 13:09:02;;;;;;;5.22;2.22;;;;;;;29.11;40.24;96659.69;10365475;28;20205;-73
2022/08/30 13:14:19;;;;;;;4.50;1.85;;;;;;;29.76;41.46;96707.44;10366777;28;20220;-72
2022/08/30 13:19:34;;;;;;;4.38;2.10;;;;;;;30.15;37.60;96612.84;10367108;28;20203;-72
2022/08/30 13:24:40;;;;;;;2.97;2.10;;;;;;;29.95;39.99;96670.56;10366485;28;20589;-73
2022/08/30 13:29:40;;;;;;;5.32;2.28;;;;;;;28.28;42.67;96677.97;10365462;28;20191;-72
2022/08/30 13:34:41;;;;;;;3.85;2.00;;;;;;;27.41;43.83;96686.78;10365118;28;20243;-72
2022/08/30 13:39:41;;;;;;;4.25;2.30;;;;;;;27.18;44.10;96693.41;10366668;28;20224;-72
2022/08/30 13:44:41;;;;;;;4.70;2.00;;;;;;;27.70;43.67;96692.50;10374210;28;20649;-72
2022/08/30 13:49:43;;;;;;;9.88;2.53;;;;;;;26.16;46.94;96710.56;10368204;28;21051;-71
2022/08/30 13:54:45;;;;;;;3.47;2.17;;;;;;;26.18;48.58;96756.75;10352649;28;20221;-72
2022/08/30 13:59:45;;;;;;;2.40;2.20;;;;;;;25.28;53.05;96827.66;10352379;28;20201;-72
2022/08/30 14:04:45;;;;;;;7.07;3.43;;;;;;;24.08;56.46;96862.69;10367507;28;20196;-72
2022/08/30 14:09:46;;;;;;;4.10;2.47;;;;;;;24.26;56.34;96868.88;10368439;28;20440;-72
2022/08/30 14:14:46;;;;;;;4.03;2.60;;;;;;;24.41;57.41;96890.59;10355158;28;20219;-72
2022/08/30 14:19:46;;;;;;;2.63;2.20;;;;;;;24.50;56.26;96858.84;10372693;28;20205;-72
2022/08/30 14:24:47;;;;;;;4.97;2.90;;;;;;;25.89;54.23;96853.63;10372107;28;20187;-72
2022/08/30 14:29:48;;;;;;;7.27;2.37;;;;;;;28.17;48.57;96803.78;10372731;28;20197;-72
2022/08/30 14:34:48;;;;;;;3.97;2.10;;;;;;;29.99;44.48;96765.38;10371751;28;20483;-72
2022/08/30 14:39:49;;;;;;;4.03;2.15;;;;;;;28.78;47.06;96772.56;10371948;28;20548;-72
2022/08/30 14:44:49;;;;;;;5.07;2.53;;;;;;;25.34;52.29;96792.88;10370668;28;20189;-73
2022/08/30 14:49:50;;;;;;;5.25;2.05;;;;;;;24.50;55.95;96856.19;10372083;28;20456;-72
2022/08/30 14:54:50;;;;;;;3.43;2.13;;;;;;;27.24;49.99;96818.78;10370950;28;20228;-72
2022/08/30 14:59:50;;;;;;;3.43;2.17;;;;;;;30.15;44.60;96779.56;10370926;28;20536;-73
2022/08/30 15:04:51;;;;;;;4.13;2.40;;;;;;;30.24;43.05;96735.44;10370981;28;20467;-73
2022/08/30 15:09:51;;;;;;;2.37;2.17;;;;;;;29.40;45.41;96756.22;10370638;28;20651;-72
2022/08/30 15:14:51;;;;;;;2.67;2.10;;;;;;;28.51;45.99;96749.38;10369681;28;20892;-73
2022/08/30 15:19:52;;;;;;;3.63;2.00;;;;;;;29.79;43.00;96712.25;10370812;28;20783;-72
2022/08/30 15:24:54;;;;;;;2.65;1.90;;;;;;;28.26;47.84;96779.84;10370043;28;20665;-72
2022/08/30 15:29:54;;;;;;;5.30;2.08;;;;;;;28.98;44.60;96713.16;10369777;28;20304;-72
2022/08/30 15:34:54;;;;;;;6.07;2.20;;;;;;;29.24;44.62;96723.91;10369398;28;20225;-73
2022/08/30 15:39:58;;;;;;;4.53;2.07;;;;;;;30.62;41.98;96707.03;10369334;28;20459;-72
2022/08/30 15:44:58;;;;;;;3.00;1.90;;;;;;;31.32;41.06;96717.34;10368920;28;20463;-72
2022/08/30 15:50:03;;;;;;;3.30;1.90;;;;;;;31.53;40.15;96703.53;10369990;28;20232;-73
2022/08/30 15:55:03;;;;;;;3.70;2.08;;;;;;;29.82;42.53;96695.53;10368608;28;20690;-72
2022/08/30 16:00:07;;;;;;;2.25;2.05;;;;;;;26.15;50.06;96766.13;10369048;28;20192;-72
2022/08/30 16:05:10;;;;;;;3.08;1.90;;;;;;;24.15;54.53;96811.66;10368245;28;20212;-73
2022/08/30 16:10:10;;;;;;;5.68;2.13;;;;;;;23.21;56.60;96837.63;10367403;28;20998;-72
2022/08/30 16:15:11;;;;;;;2.05;1.85;;;;;;;22.35;60.53;96886.06;10365126;28;20218;-72
2022/08/30 16:20:12;;;;;;;4.38;2.40;;;;;;;22.30;61.47;96896.59;10338892;28;20198;-72
2022/08/30 16:25:12;;;;;;;6.50;2.08;;;;;;;22.19;61.73;96884.00;10357972;28;20566;-72
2022/08/30 16:30:13;;;;;;;7.18;2.33;;;;;;;22.26;62.84;96904.22;10361552;28;20529;-72
2022/08/30 16:35:13;;;;;;;7.55;2.65;;;;;;;22.20;62.33;96885.63;10359417;28;20568;-73
2022/08/30 16:40:14;;;;;;;4.75;2.45;;;;;;;21.71;62.79;96877.63;10347958;28;20185;-72
2022/08/30 16:45:14;;;;;;;3.05;2.60;;;;;;;21.87;63.61;96895.69;10367325;28;20208;-72
2022/08/30 16:50:17;;;;;;;2.42;2.20;;;;;;;21.38;66.02;96922.25;10369092;28;20220;-72
2022/08/30 16:55:17;;;;;;;2.63;2.05;;;;;;;21.49;65.79;96907.41;10368591;28;20272;-72
2022/08/30 17:00:18;;;;;;;2.70;2.03;;;;;;;21.46;66.53;96915.81;10368912;28;20645;-73
2022/08/30 17:05:19;;;;;;;4.18;2.45;;;;;;;21.41;66.34;96906.84;10368376;28;20204;-72
2022/08/30 17:10:20;;;;;;;3.58;2.50;;;;;;;21.20;69.20;96936.34;10368722;28;20594;-72
2022/08/30 17:15:20;;;;;;;5.53;2.50;;;;;;;21.10;67.94;96913.91;10370406;28;20224;-72
2022/08/30 17:20:21;;;;;;;2.40;2.20;;;;;;;20.48;69.31;96933.19;10375417;28;20208;-72
2022/08/30 17:25:22;;;;;;;2.40;2.20;;;;;;;19.99;70.89;96954.09;10374824;28;20189;-72
2022/08/30 17:30:22;;;;;;;7.75;2.33;;;;;;;20.14;70.74;96944.00;10375501;28;20201;-73
2022/08/30 17:35:22;;;;;;;2.35;2.15;;;;;;;19.73;72.88;96952.31;10357087;28;20216;-72
2022/08/30 17:40:23;;;;;;;3.03;2.22;;;;;;;19.59;73.43;96954.97;10374974;28;20243;-72
2022/08/30 17:45:23;;;;;;;3.72;2.13;;;;;;;19.34;74.26;96960.16;10362203;28;20248;-72
2022/08/30 17:50:24;;;;;;;4.88;2.25;;;;;;;19.09;76.36;96973.22;10351049;28;20235;-72
2022/08/30 17:55:24;;;;;;;6.78;2.88;;;;;;;18.95;77.87;96976.91;10351265;28;20236;-72
2022/08/30 18:00:24;;;;;;;7.38;2.75;;;;;;;18.86;78.30;96974.41;10354456;28;20275;-72
2022/08/30 18:05:25;;;;;;;5.45;2.58;;;;;;;18.77;82.43;96996.84;10350387;28;20186;-72
2022/08/30 18:10:25;;;;;;;8.95;5.28;;;;;;;18.60;86.00;96998.25;10351979;28;20218;-72
2022/08/30 18:15:26;;;;;;;5.53;3.83;;;;;;;18.00;91.06;97001.50;10348472;28;20226;-72
2022/08/30 18:20:26;;;;;;;4.00;2.53;;;;;;;17.83;94.19;97007.06;10347125;28;20293;-72
2022/08/30 18:25:26;;;;;;;5.32;2.80;;;;;;;17.87;96.74;97007.53;10331809;28;20181;-72
2022/08/30 18:30:27;;;;;;;5.30;3.55;;;;;;;17.54;100.00;97020.56;10331699;28;20201;-73
2022/08/30 18:35:28;;;;;;;8.40;2.92;;;;;;;16.99;100.00;97031.72;10331640;28;20217;-71
2022/08/30 18:40:28;;;;;;;5.57;3.10;;;;;;;17.01;100.00;97029.69;10331932;28;20194;-73
2022/08/30 18:45:28;;;;;;;3.40;3.10;;;;;;;16.90;100.00;97028.34;10331372;28;20186;-73
2022/08/30 18:50:29;;;;;;;6.13;3.03;;;;;;;16.90;100.00;97038.13;10332138;28;20190;-72
2022/08/30 18:55:30;;;;;;;3.50;3.03;;;;;;;16.58;100.00;97040.19;10330655;28;20284;-72
2022/08/30 19:00:30;;;;;;;4.60;2.90;;;;;;;16.49;100.00;97043.97;10331059;28;20196;-72
2022/08/30 19:05:31;;;;;;;3.50;3.00;;;;;;;16.24;100.00;97049.56;10329844;28;20194;-72
2022/08/30 19:10:32;;;;;;;4.15;3.40;;;;;;;15.90;100.00;97043.03;10329557;28;20212;-72
2022/08/30 19:15:33;;;;;;;4.75;3.70;;;;;;;16.03;100.00;97042.38;10329964;28;20238;-73
2022/08/30 19:20:33;;;;;;;4.82;3.83;;;;;;;16.03;100.00;97037.94;10328786;28;20186;-72
2022/08/30 19:25:34;;;;;;;6.15;3.92;;;;;;;15.72;100.00;97039.88;10329234;28;20212;-72
2022/08/30 19:30:34;;;;;;;4.05;3.60;;;;;;;15.70;100.00;97048.81;10329958;28;20198;-72
2022/08/30 19:35:35;;;;;;;5.15;4.30;;;;;;;15.58;100.00;97052.88;10340751;28;20228;-73
2022/08/30 19:40:35;;;;;;;7.10;4.20;;;;;;;15.54;100.00;97056.88;10350145;28;20595;-73
2022/08/30 19:45:37;;;;;;;8.50;4.05;;;;;;;15.39;100.00;97056.03;10346815;28;20552;-72
2022/08/30 19:50:37;;;;;;;7.18;4.22;;;;;;;15.34;100.00;97059.19;10346129;28;20695;-71
2022/08/30 19:55:38;;;;;;;6.30;4.30;;;;;;;15.06;100.00;97056.31;10347127;28;20233;-72
2022/08/30 20:00:38;;;;;;;4.72;3.75;;;;;;;15.04;100.00;97060.91;10335250;28;20292;-72
2022/08/30 20:05:39;;;;;;;6.30;4.50;;;;;;;14.91;100.00;97067.59;10327747;28;20197;-72
2022/08/30 20:10:42;;;;;;;11.20;5.03;;;;;;;14.78;100.00;97060.28;10328846;28;20189;-72
2022/08/30 20:15:42;;;;;;;4.50;4.10;;;;;;;14.68;100.00;97053.59;10327009;28;20229;-72
2022/08/30 20:20:43;;;;;;;6.30;4.28;;;;;;;14.79;100.00;97051.38;10328337;28;20240;-73
2022/08/30 20:25:43;;;;;;;7.10;3.65;;;;;;;14.77;100.00;97052.53;10326458;28;20193;-72
2022/08/30 20:30:43;;;;;;;4.75;4.35;;;;;;;14.51;100.00;97056.25;10325994;28;20201;-72
2022/08/30 20:35:44;;;;;;;7.50;4.50;;;;;;;14.47;100.00;97057.59;10325408;28;20316;-72
2022/08/30 20:40:46;;;;;;;4.72;4.03;;;;;;;14.43;100.00;97051.06;10325815;28;20194;-72
2022/08/30 20:45:47;;;;;;;10.57;4.57;;;;;;;14.34;100.00;97054.72;10326144;28;20189;-72
2022/08/30 20:50:47;;;;;;;5.18;4.68;;;;;;;14.30;100.00;97059.50;10325236;28;20197;-72
2022/08/30 20:55:47;;;;;;;4.95;4.22;;;;;;;14.35;100.00;97064.25;10325098;28;20240;-72
2022/08/30 21:00:50;;;;;;;8.00;5.20;;;;;;;14.03;100.00;97066.03;10324759;28;20194;-72
2022/08/30 21:05:50;;;;;;;9.55;4.80;;;;;;;13.94;100.00;97069.69;10326200;28;20190;-72
2022/08/30 21:10:51;;;;;;;4.82;4.38;;;;;;;13.74;100.00;97072.69;10326970;28;20233;-72
2022/08/30 21:15:54;;;;;;;7.13;5.18;;;;;;;13.77;100.00;97071.50;10325481;28;20241;-72
2022/08/30 21:20:58;;;;;;;6.90;4.82;;;;;;;13.54;100.00;97080.13;10326607;28;20309;-72
2022/08/30 21:26:03;;;;;;;7.15;4.97;;;;;;;13.51;100.00;97072.56;10326039;28;20182;-72
2022/08/30 21:31:14;;;;;;;8.50;5.15;;;;;;;13.50;100.00;97068.28;10325545;28;20194;-72
2022/08/30 21:41:36;;;;;;;6.80;5.05;;;;;;;13.44;100.00;97064.47;10325040;28;20201;-73
2022/08/30 21:46:36;;;;;;;6.07;5.25;;;;;;;13.34;100.00;97071.75;10324491;28;21025;-72
2022/08/30 21:51:39;;;;;;;8.63;5.60;;;;;;;13.28;100.00;97086.34;10326606;28;20280;-72
2022/08/30 21:56:42;;;;;;;6.88;5.10;;;;;;;13.15;100.00;97078.91;10325262;28;20289;-73
2022/08/30 22:01:42;;;;;;;6.88;5.20;;;;;;;13.06;100.00;97081.72;10327288;28;20246;-72
2022/08/30 22:06:46;;;;;;;5.78;5.18;;;;;;;12.94;100.00;97091.72;10332955;28;20186;-72
2022/08/30 22:11:47;;;;;;;7.30;5.57;;;;;;;12.69;100.00;97096.94;10332537;28;20193;-72
2022/08/30 22:16:47;;;;;;;9.35;5.75;;;;;;;12.51;100.00;97096.22;10332311;28;20562;-73
2022/08/30 22:21:47;;;;;;;6.38;5.20;;;;;;;12.61;100.00;97100.34;10333299;28;20245;-72
2022/08/30 22:26:48;;;;;;;8.90;5.30;;;;;;;12.58;100.00;97094.59;10332388;28;20548;-72
2022/08/30 22:31:48;;;;;;;8.60;5.82;;;;;;;12.53;100.00;97089.03;10332155;28;20197;-72
2022/08/30 22:36:48;;;;;;;9.02;6.55;;;;;;;12.45;100.00;97079.28;10331207;28;20313;-72
2022/08/30 22:41:49;;;;;;;7.72;5.68;;;;;;;12.34;100.00;97080.38;10331956;28;20200;-72
2022/08/30 22:46:50;;;;;;;8.88;5.20;;;;;;;12.39;100.00;97090.41;10331231;28;20185;-72
2022/08/30 22:51:50;;;;;;;6.35;5.40;;;;;;;12.32;100.00;97096.31;10331067;28;20605;-72
2022/08/30 22:56:51;;;;;;;8.70;5.65;;;;;;;12.23;100.00;97099.06;10330705;28;20234;-72
2022/08/30 23:01:51;;;;;;;11.18;5.90;;;;;;;12.19;100.00;97109.06;10330961;28;20201;-72
2022/08/30 23:06:51;;;;;;;7.07;5.50;;;;;;;12.26;100.00;97115.31;10330511;28;20281;-72
2022/08/30 23:11:52;;;;;;;5.82;5.10;;;;;;;12.13;100.00;97107.88;10330607;28;20182;-72
2022/08/30 23:16:52;;;;;;;8.80;5.85;;;;;;;11.90;100.00;97114.63;10329474;28;20243;-72
2022/08/30 23:21:52;;;;;;;9.05;5.65;;;;;;;11.77;100.00;97115.03;10330323;28;20198;-73
